createdAt,value
2022-12-25T12:28:55.817Z,101111.27
2022-12-25T12:29:56.258Z,101111.77
2022-12-25T12:30:56.994Z,101111.94
2022-12-25T12:31:57.580Z,101111.60
2022-12-25T12:32:57.693Z,101111.48
2022-12-25T12:33:58.047Z,101111.48
2022-12-25T12:34:58.350Z,101110.88
2022-12-25T12:35:59.266Z,101111.27
2022-12-25T12:36:59.751Z,101110.89
2022-12-25T12:37:59.960Z,101110.25
2022-12-25T12:39:00.702Z,101109.82
2022-12-25T12:40:01.265Z,101110.03
2022-12-25T12:41:01.722Z,101109.91
2022-12-25T12:42:01.830Z,101110.38
2022-12-25T12:43:02.401Z,101109.73
2022-12-25T12:44:02.702Z,101109.39
2022-12-25T12:45:02.946Z,101108.42
2022-12-25T12:46:03.102Z,101108.67
2022-12-25T12:47:03.123Z,101107.95
2022-12-25T12:48:03.407Z,101107.23
2022-12-25T12:49:03.736Z,101107.06
2022-12-25T12:50:04.269Z,101107.36
2022-12-25T12:51:04.829Z,101107.28
2022-12-25T12:52:05.274Z,101107.61
2022-12-25T12:53:05.460Z,101107.57
2022-12-25T12:54:05.960Z,101107.15
2022-12-25T12:55:06.596Z,101107.36
2022-12-25T12:56:06.898Z,101107.03
2022-12-25T12:57:06.927Z,101106.69
2022-12-25T12:58:07.302Z,101106.52
2022-12-25T13:45:06.418Z,101049.70
2022-12-25T13:46:06.968Z,101049.98
2022-12-25T13:47:07.519Z,101050.20
2022-12-25T13:48:08.270Z,101050.03
2022-12-25T13:49:08.519Z,101050.63
2022-12-25T13:50:09.455Z,101050.87
2022-12-25T13:51:10.467Z,101050.70
2022-12-25T13:52:11.256Z,101050.62
2022-12-25T13:53:11.405Z,101050.92
2022-12-25T13:54:12.287Z,101050.83
2022-12-25T13:55:13.141Z,101051.13
2022-12-25T13:56:14.063Z,101051.13
2022-12-25T13:57:14.927Z,101051.42
2022-12-25T13:58:15.756Z,101052.09
2022-12-25T13:59:17.318Z,101052.48
2022-12-25T14:00:16.553Z,101052.98
2022-12-25T14:01:17.191Z,101053.06
2022-12-25T14:02:18.097Z,101053.41
2022-12-25T14:03:19.045Z,101053.80
2022-12-25T14:04:19.864Z,101053.80
2022-12-25T14:05:20.773Z,101054.81
2022-12-25T14:06:21.337Z,101056.16
2022-12-25T14:07:22.015Z,101055.77
2022-12-25T14:08:22.380Z,101056.20
2022-12-25T14:09:23.354Z,101056.38
2022-12-25T14:10:23.918Z,101056.84
2022-12-25T14:11:24.420Z,101057.64
2022-12-25T14:12:25.021Z,101058.70
2022-12-25T14:12:41.163Z,101080.22
2022-12-25T14:13:41.857Z,101079.84
2022-12-25T14:14:42.326Z,101079.50
2022-12-25T14:15:43.228Z,101078.99
2022-12-25T14:16:43.636Z,101079.34
2022-12-25T14:17:44.355Z,101079.68
2022-12-25T14:18:45.021Z,101080.78
2022-12-25T14:25:47.272Z,101138.52
2022-12-25T14:26:47.619Z,101138.61
2022-12-25T14:27:48.238Z,101139.70
2022-12-25T14:28:49.138Z,101140.12
2022-12-25T14:29:49.884Z,101140.89
2022-12-25T14:30:50.920Z,101141.39
2022-12-25T14:31:51.424Z,101141.73
2022-12-25T14:32:52.017Z,101142.32
2022-12-25T14:33:52.945Z,101142.49
2022-12-25T14:34:53.565Z,101143.17
2022-12-25T14:35:54.084Z,101144.23
2022-12-25T14:36:54.120Z,101144.41
2022-12-25T14:37:55.031Z,101144.57
2022-12-25T14:38:55.886Z,101144.57
2022-12-25T14:39:56.527Z,101145.70
2022-12-25T14:40:57.206Z,101146.81
2022-12-25T14:41:58.070Z,101148.29
2022-12-25T14:42:58.389Z,101150.19
2022-12-25T14:43:59.115Z,101152.05
2022-12-25T14:44:59.785Z,101153.61
2022-12-25T14:46:00.840Z,101155.14
2022-12-25T14:47:01.813Z,101156.27
2022-12-25T14:48:02.289Z,101157.20
2022-12-25T14:49:02.766Z,101157.72
2022-12-25T14:50:03.266Z,101158.55
2022-12-25T14:51:03.928Z,101158.81
2022-12-25T14:52:04.662Z,101159.66
2022-12-25T14:53:04.811Z,101160.84
2022-12-25T14:54:04.983Z,101161.78
2022-12-25T14:55:05.920Z,101163.42
2022-12-25T14:55:20.989Z,101183.88
2022-12-25T15:03:49.846Z,101195.39
2022-12-25T15:04:50.017Z,101195.52
2022-12-25T15:05:50.814Z,101195.52
2022-12-25T15:06:51.274Z,101195.60
2022-12-25T15:07:51.764Z,101195.69
2022-12-25T15:08:52.416Z,101196.11
2022-12-25T15:10:18.504Z,101196.73
2022-12-25T15:11:02.878Z,101197.76
2022-12-25T15:11:54.763Z,101198.73
2022-12-25T15:12:55.571Z,101200.08
2022-12-25T15:13:56.351Z,101201.05
2022-12-25T15:14:56.900Z,101202.19
2022-12-25T15:15:57.844Z,101203.33
2022-12-25T15:16:58.480Z,101204.13
2022-12-25T15:17:59.067Z,101205.65
2022-12-25T15:18:59.805Z,101206.95
2022-12-25T15:20:00.711Z,101207.92
2022-12-25T15:21:01.309Z,101208.72
2022-12-25T15:22:02.054Z,101209.16
2022-12-25T15:23:19.345Z,101209.61
2022-12-25T15:24:03.199Z,101209.98
2022-12-25T15:25:03.171Z,101209.59
2022-12-25T15:26:03.929Z,101210.11
2022-12-25T15:27:04.430Z,101210.41
2022-12-25T15:28:08.026Z,101211.03
2022-12-25T15:29:05.630Z,101211.83
2022-12-25T15:30:10.616Z,101212.55
2022-12-25T15:31:07.164Z,101213.26
2022-12-25T15:32:07.928Z,101214.48
2022-12-25T15:33:08.847Z,101215.53
2022-12-25T15:34:09.708Z,101216.25
2022-12-25T15:35:10.506Z,101216.20
2022-12-25T15:35:26.619Z,101218.36
2022-12-25T15:36:27.284Z,101218.11
2022-12-25T15:37:27.306Z,101217.77
2022-12-25T15:38:27.847Z,101217.68
2022-12-25T15:39:28.520Z,101217.43
2022-12-25T15:40:29.271Z,101216.87
2022-12-25T15:41:29.853Z,101216.37
2022-12-25T15:42:30.842Z,101215.81
2022-12-25T15:43:45.448Z,101215.52
2022-12-25T15:44:31.688Z,101215.09
2022-12-25T15:45:32.285Z,101214.53
2022-12-25T15:46:32.936Z,101213.90
2022-12-25T15:47:33.305Z,101213.34
2022-12-25T15:48:33.968Z,101212.20
2022-12-25T15:49:34.582Z,101212.15
2022-12-25T15:50:35.122Z,101211.43
2022-12-25T15:51:35.601Z,101211.42
2022-12-25T15:52:36.218Z,101211.71
2022-12-25T15:53:36.749Z,101211.58
2022-12-25T15:54:37.481Z,101211.83
2022-12-25T15:55:37.915Z,101212.23
2022-12-25T15:56:38.742Z,101212.90
2022-12-25T15:57:39.336Z,101213.78
2022-12-25T15:58:39.832Z,101214.11
2022-12-25T15:59:40.756Z,101214.86
2022-12-25T16:00:41.417Z,101216.16
2022-12-25T16:01:42.058Z,101216.49
2022-12-25T16:02:42.752Z,101217.03
2022-12-25T16:03:43.131Z,101217.45
2022-12-25T16:04:43.927Z,101218.02
2022-12-25T16:04:59.529Z,101221.47
2022-12-25T16:06:00.313Z,101221.41
2022-12-25T16:07:00.775Z,101222.27
2022-12-25T16:08:01.321Z,101222.77
2022-12-25T16:09:02.176Z,101223.56
2022-12-25T16:10:02.823Z,101224.23
2022-12-25T16:11:03.685Z,101225.28
2022-12-25T16:12:04.216Z,101226.80
2022-12-25T16:13:05.204Z,101228.92
2022-12-25T16:14:05.835Z,101231.14
2022-12-25T16:15:06.580Z,101233.34
2022-12-25T16:16:07.343Z,101234.81
2022-12-25T16:17:07.967Z,101236.87
2022-12-25T16:18:08.205Z,101238.85
2022-12-25T16:19:08.839Z,101241.21
2022-12-25T16:20:09.735Z,101243.10
2022-12-25T16:21:09.968Z,101245.47
2022-12-25T16:30:50.604Z,101239.36
2022-12-25T16:31:51.488Z,101239.95
2022-12-25T16:32:51.913Z,101240.57
2022-12-25T16:33:52.359Z,101241.08
2022-12-25T16:34:52.940Z,101241.50
2022-12-25T16:35:53.704Z,101242.09
2022-12-25T16:36:54.433Z,101242.52
2022-12-25T16:37:55.240Z,101242.97
2022-12-25T16:38:55.591Z,101243.64
2022-12-25T16:39:56.541Z,101243.39
2022-12-25T16:40:57.289Z,101243.73
2022-12-25T16:41:57.524Z,101243.90
2022-12-25T16:42:57.632Z,101243.56
2022-12-25T16:43:57.883Z,101243.31
2022-12-25T16:44:58.279Z,101243.31
2022-12-25T16:45:58.938Z,101243.05
2022-12-25T16:46:59.793Z,101243.39
2022-12-25T16:54:57.575Z,101244.05
2022-12-25T16:55:57.852Z,101244.89
2022-12-25T16:56:58.487Z,101244.98
2022-12-25T16:57:59.205Z,101245.31
2022-12-25T16:58:59.286Z,101245.06
2022-12-25T17:00:00.268Z,101245.91
2022-12-25T17:01:00.650Z,101247.17
2022-12-25T17:02:00.895Z,101247.77
2022-12-25T17:03:01.567Z,101248.07
2022-12-25T17:04:01.947Z,101248.38
2022-12-25T17:05:02.332Z,101248.93
2022-12-25T17:06:02.979Z,101249.44
2022-12-25T17:07:03.761Z,101250.84
2022-12-25T17:08:04.629Z,101252.16
2022-12-25T17:09:05.405Z,101253.25
2022-12-25T17:10:05.855Z,101254.43
2022-12-25T17:11:06.674Z,101255.41
2022-12-25T17:12:07.530Z,101256.50
2022-12-25T17:13:07.806Z,101257.60
2022-12-25T17:14:08.553Z,101258.33
2022-12-25T17:15:08.611Z,101259.67
2022-12-25T17:16:08.785Z,101260.83
2022-12-25T17:17:09.557Z,101261.75
2022-12-25T17:18:09.726Z,101262.73
2022-12-25T17:19:10.571Z,101263.58
2022-12-25T17:20:11.533Z,101264.72
2022-12-25T17:21:12.340Z,101265.82
2022-12-25T17:22:12.391Z,101266.50
2022-12-25T17:23:13.210Z,101267.42
2022-12-25T17:24:13.962Z,101268.19
2022-12-25T17:24:31.147Z,101277.47
2022-12-25T17:25:31.201Z,101277.72
2022-12-25T17:26:31.428Z,101277.38
2022-12-25T17:27:31.523Z,101277.22
2022-12-25T17:28:31.561Z,101277.05
2022-12-25T17:29:32.381Z,101276.80
2022-12-25T17:30:33.310Z,101276.80
2022-12-25T17:31:33.549Z,101276.63
2022-12-25T17:32:34.210Z,101276.28
2022-12-25T17:33:34.327Z,101275.78
2022-12-25T17:34:35.102Z,101275.11
2022-12-25T17:35:35.793Z,101274.69
2022-12-25T17:36:35.961Z,101273.92
2022-12-25T17:37:36.262Z,101272.96
2022-12-25T17:38:36.490Z,101271.95
2022-12-25T17:39:36.753Z,101270.77
2022-12-25T17:40:36.767Z,101269.92
2022-12-25T17:41:37.679Z,101268.48
2022-12-25T17:42:38.458Z,101266.80
2022-12-25T17:43:39.136Z,101265.53
2022-12-25T17:44:39.506Z,101264.69
2022-12-25T17:45:40.196Z,101263.84
2022-12-25T17:46:41.005Z,101262.58
2022-12-25T17:47:41.677Z,101261.43
2022-12-25T17:48:42.542Z,101260.67
2022-12-25T17:49:43.333Z,101260.03
2022-12-25T17:50:44.276Z,101259.19
2022-12-25T17:51:44.947Z,101259.22
2022-12-25T17:52:45.914Z,101258.03
2022-12-25T17:53:46.372Z,101257.56
2022-12-25T17:54:03.537Z,101254.89
2022-12-25T17:55:04.455Z,101254.97
2022-12-25T17:56:04.587Z,101254.97
2022-12-25T17:57:05.410Z,101255.14
2022-12-25T17:58:06.138Z,101255.09
2022-12-25T17:59:07.025Z,101255.26
2022-12-25T18:00:07.524Z,101255.34
2022-12-25T18:01:08.325Z,101256.02
2022-12-25T18:02:09.236Z,101255.77
2022-12-25T18:03:11.965Z,101256.61
2022-12-25T18:04:09.619Z,101257.45
2022-12-25T18:05:10.446Z,101258.55
2022-12-25T18:06:10.882Z,101259.17
2022-12-25T18:07:10.955Z,101260.44
2022-12-25T18:08:11.171Z,101261.54
2022-12-25T18:09:11.559Z,101262.47
2022-12-25T18:10:12.387Z,101263.14
2022-12-25T18:11:12.494Z,101264.16
2022-12-25T18:12:12.720Z,101264.66
2022-12-25T18:13:12.911Z,101265.34
2022-12-25T18:14:13.688Z,101265.84
2022-12-25T18:15:13.887Z,101266.69
2022-12-25T18:16:14.227Z,101266.64
2022-12-25T18:17:14.384Z,101267.48
2022-12-25T18:18:15.357Z,101268.41
2022-12-25T18:19:16.204Z,101269.42
2022-12-25T18:20:17.164Z,101269.67
2022-12-25T18:21:17.205Z,101270.94
2022-12-25T18:22:17.263Z,101271.78
2022-12-25T18:22:33.928Z,101289.89
2022-12-25T18:23:34.634Z,101290.23
2022-12-25T18:24:35.417Z,101290.14
2022-12-25T18:25:36.314Z,101290.31
2022-12-25T18:26:37.277Z,101289.89
2022-12-25T18:27:38.072Z,101289.89
2022-12-25T18:28:38.885Z,101289.56
2022-12-25T18:29:39.785Z,101289.30
2022-12-25T18:30:40.668Z,101289.30
2022-12-25T18:31:41.412Z,101288.83
2022-12-25T18:32:41.467Z,101288.16
2022-12-25T18:33:42.341Z,101288.44
2022-12-25T18:34:43.190Z,101288.45
2022-12-25T18:35:44.249Z,101288.14
2022-12-25T18:36:45.151Z,101287.63
2022-12-25T18:37:45.208Z,101286.57
2022-12-25T18:38:46.059Z,101286.77
2022-12-25T18:39:50.012Z,101286.77
2022-12-25T18:40:47.160Z,101286.64
2022-12-25T18:41:47.339Z,101286.25
2022-12-25T18:42:48.161Z,101286.67
2022-12-25T18:43:52.986Z,101286.95
2022-12-25T18:44:49.840Z,101287.08
2022-12-25T18:45:50.821Z,101287.02
2022-12-25T18:46:50.716Z,101287.48
2022-12-25T18:47:50.713Z,101287.73
2022-12-25T18:48:51.595Z,101288.10
2022-12-25T18:49:51.598Z,101287.55
2022-12-25T18:50:52.573Z,101287.38
2022-12-25T18:51:53.490Z,101287.13
2022-12-25T18:52:54.316Z,101286.98
2022-12-25T18:53:55.261Z,101286.34
2022-12-25T18:54:09.914Z,101269.63
2022-12-25T18:55:10.120Z,101269.97
2022-12-25T18:56:10.205Z,101268.79
2022-12-25T18:57:11.127Z,101268.06
2022-12-25T18:58:12.046Z,101267.89
2022-12-25T18:59:12.878Z,101267.50
2022-12-25T19:00:13.712Z,101266.95
2022-12-25T19:01:13.894Z,101266.14
2022-12-25T19:02:14.008Z,101265.33
2022-12-25T19:03:14.545Z,101264.69
2022-12-25T19:12:50.946Z,101252.37
2022-12-25T19:13:50.954Z,101253.50
2022-12-25T19:14:51.623Z,101254.67
2022-12-25T19:15:52.548Z,101255.95
2022-12-25T19:16:53.069Z,101257.13
2022-12-25T19:17:53.699Z,101258.59
2022-12-25T19:18:54.352Z,101259.52
2022-12-25T19:19:55.155Z,101259.94
2022-12-25T19:20:55.884Z,101260.78
2022-12-25T19:21:56.629Z,101261.03
2022-12-25T19:22:57.355Z,101261.54
2022-12-25T19:23:58.243Z,101262.55
2022-12-25T19:24:59.198Z,101262.67
2022-12-25T19:25:59.944Z,101263.27
2022-12-25T19:27:00.807Z,101263.84
2022-12-25T19:28:01.744Z,101264.86
2022-12-25T19:29:02.010Z,101265.31
2022-12-25T19:30:02.910Z,101267.42
2022-12-25T19:31:02.932Z,101268.94
2022-12-25T19:32:03.367Z,101270.33
2022-12-25T19:33:03.569Z,101271.28
2022-12-25T19:34:03.921Z,101273.31
2022-12-25T19:35:04.256Z,101274.99
2022-12-25T19:36:05.126Z,101276.52
2022-12-25T19:37:05.350Z,101276.84
2022-12-25T19:38:05.476Z,101277.19
2022-12-25T19:39:05.978Z,101278.42
2022-12-25T19:40:06.929Z,101279.09
2022-12-25T19:41:07.212Z,101279.40
2022-12-25T19:42:07.867Z,101279.31
2022-12-25T19:43:08.402Z,101279.88
2022-12-25T19:43:24.033Z,101283.59
2022-12-25T19:44:24.674Z,101283.33
2022-12-25T19:45:25.087Z,101283.50
2022-12-25T19:46:25.657Z,101283.08
2022-12-25T19:47:25.746Z,101282.49
2022-12-25T19:48:25.825Z,101282.02
2022-12-25T19:49:26.403Z,101281.97
2022-12-25T19:50:26.477Z,101282.22
2022-12-25T19:51:26.604Z,101282.42
2022-12-25T19:52:26.619Z,101282.76
2022-12-25T19:53:26.761Z,101282.50
2022-12-25T19:54:26.846Z,101282.25
2022-12-25T19:55:27.864Z,101281.66
2022-12-25T19:56:28.311Z,101281.11
2022-12-25T19:57:28.356Z,101281.27
2022-12-25T19:58:28.495Z,101280.94
2022-12-25T19:59:28.947Z,101280.94
2022-12-25T20:00:29.138Z,101280.94
2022-12-25T20:01:29.551Z,101280.94
2022-12-25T20:02:29.446Z,101281.11
2022-12-25T20:03:29.628Z,101281.44
2022-12-25T20:04:30.215Z,101281.95
2022-12-25T20:05:30.708Z,101282.37
2022-12-25T20:06:31.058Z,101282.79
2022-12-25T20:07:31.138Z,101283.12
2022-12-25T20:08:31.232Z,101284.05
2022-12-25T20:09:31.360Z,101284.19
2022-12-25T20:10:32.349Z,101283.59
2022-12-25T20:11:32.582Z,101283.94
2022-12-25T20:12:33.196Z,101283.40
2022-12-25T20:13:34.109Z,101282.72
2022-12-25T20:14:34.569Z,101281.42
2022-12-25T20:15:35.486Z,101280.67
2022-12-25T20:18:30.941Z,101254.30
2022-12-25T20:19:30.949Z,101255.65
2022-12-25T20:20:31.781Z,101255.39
2022-12-25T20:21:32.052Z,101255.91
2022-12-25T20:22:32.967Z,101255.98
2022-12-25T20:23:33.174Z,101256.41
2022-12-25T20:24:34.063Z,101257.39
2022-12-25T20:25:34.918Z,101257.69
2022-12-25T20:26:35.092Z,101257.86
2022-12-25T20:27:35.138Z,101258.25
2022-12-25T20:28:35.408Z,101257.80
2022-12-25T20:29:35.603Z,101257.20
2022-12-25T20:30:35.761Z,101256.25
2022-12-25T20:31:35.914Z,101255.28
2022-12-25T20:32:35.813Z,101254.33
2022-12-25T20:33:36.469Z,101254.29
2022-12-25T20:34:36.965Z,101253.66
2022-12-25T20:35:37.697Z,101252.84
2022-12-25T20:36:38.488Z,101252.22
2022-12-25T20:37:39.018Z,101251.68
2022-12-25T20:38:39.286Z,101250.77
2022-12-25T20:39:40.095Z,101249.83
2022-12-25T20:45:58.197Z,101178.56
2022-12-25T20:46:58.044Z,101179.57
2022-12-25T20:47:58.092Z,101179.74
2022-12-25T20:48:58.985Z,101179.41
2022-12-25T20:49:59.828Z,101179.57
2022-12-25T20:51:00.780Z,101180.08
2022-12-25T20:52:05.371Z,101179.45
2022-12-25T20:53:01.733Z,101178.95
2022-12-25T20:54:02.559Z,101178.39
2022-12-25T20:55:03.457Z,101176.78
2022-12-25T20:56:03.750Z,101175.40
2022-12-25T20:57:03.758Z,101174.12
2022-12-25T21:06:44.381Z,101128.65
2022-12-25T21:07:44.755Z,101128.98
2022-12-25T21:08:45.352Z,101128.48
2022-12-25T21:09:46.099Z,101129.41
2022-12-25T21:10:46.653Z,101130.72
2022-12-25T21:11:47.295Z,101131.14
2022-12-25T21:12:47.938Z,101130.97
2022-12-25T21:13:48.448Z,101131.48
2022-12-25T21:14:48.506Z,101131.78
2022-12-25T21:15:49.015Z,101131.75
2022-12-25T21:16:49.739Z,101130.81
2022-12-25T21:17:49.727Z,101130.22
2022-12-25T21:18:49.847Z,101129.77
2022-12-25T21:19:50.411Z,101129.59
2022-12-25T21:20:51.083Z,101129.59
2022-12-25T21:21:51.706Z,101129.77
2022-12-25T21:22:52.490Z,101129.88
2022-12-25T21:23:53.354Z,101129.88
2022-12-25T21:24:54.047Z,101129.97
2022-12-25T21:25:54.732Z,101130.91
2022-12-25T21:26:55.243Z,101131.86
2022-12-25T21:27:55.520Z,101132.03
2022-12-25T21:28:56.537Z,101132.76
2022-12-25T21:29:56.750Z,101132.70
2022-12-25T21:30:57.221Z,101133.02
2022-12-25T21:31:57.915Z,101133.44
2022-12-25T21:32:58.760Z,101133.44
2022-12-25T21:33:59.418Z,101132.94
2022-12-25T21:34:59.721Z,101131.77
2022-12-25T21:36:00.437Z,101130.59
2022-12-25T21:37:01.127Z,101128.95
2022-12-25T21:37:46.080Z,101109.13
2022-12-25T21:38:46.685Z,101109.64
2022-12-25T21:39:47.238Z,101108.03
2022-12-25T21:40:47.872Z,101107.16
2022-12-25T21:41:48.808Z,101105.63
2022-12-25T21:42:48.950Z,101104.91
2022-12-25T21:43:49.657Z,101103.64
2022-12-25T21:44:49.735Z,101101.87
2022-12-25T21:45:50.632Z,101100.94
2022-12-25T21:46:50.756Z,101099.67
2022-12-25T21:48:01.621Z,101097.77
2022-12-25T21:48:51.922Z,101095.92
2022-12-25T21:49:52.594Z,101094.52
2022-12-25T21:50:53.345Z,101092.25
2022-12-25T21:51:53.979Z,101090.47
2022-12-25T21:52:54.493Z,101087.98
2022-12-25T21:53:55.047Z,101085.75
2022-12-25T21:54:55.653Z,101083.34
2022-12-25T21:55:56.475Z,101080.43
2022-12-25T21:56:56.614Z,101077.73
2022-12-25T21:57:57.357Z,101075.50
2022-12-25T21:58:58.308Z,101073.59
2022-12-25T21:59:59.108Z,101070.72
2022-12-25T22:00:59.738Z,101068.06
2022-12-25T22:02:00.640Z,101065.31
2022-12-25T22:03:01.577Z,101062.22
2022-12-25T22:04:02.186Z,101058.72
2022-12-25T22:05:02.346Z,101056.56
2022-12-25T22:06:02.404Z,101054.02
2022-12-25T22:33:35.279Z,101049.09
2022-12-25T22:34:36.003Z,101049.59
2022-12-25T22:35:36.873Z,101050.10
2022-12-25T22:36:37.646Z,101050.70
2022-12-25T22:37:38.494Z,101051.30
2022-12-25T22:38:39.176Z,101051.89
2022-12-25T22:39:40.042Z,101053.36
2022-12-25T22:43:02.146Z,101092.25
2022-12-25T22:44:16.543Z,101092.38
2022-12-25T22:44:55.939Z,101092.09
2022-12-25T22:46:01.329Z,101091.91
2022-12-25T22:46:56.194Z,101091.48
2022-12-25T22:47:56.954Z,101091.03
2022-12-25T22:48:55.560Z,101090.52
2022-12-25T22:52:16.449Z,101089.42
2022-12-25T22:53:16.867Z,101088.31
2022-12-25T22:54:14.479Z,101087.52
2022-12-25T22:55:15.525Z,101086.55
